Time;durP1;ratioP1;P1;durP2;ratioP2;P2;SDS_P1;SDS_P2;PMS_P1;PMS_P2;Temp;Humidity;BMP_temperature;BMP_pressure;BME280_temperature;BME280_humidity;BME280_pressure;Samples;Min_cycle;Max_cycle;Signal;HPM_P1;HPM_P2
2023/01/13 00:01:50;;;;;;;1999.90;622.80;;;13.40;99.90;;;;;;4941261;29;20539;-79
2023/01/13 00:04:16;;;;;;;1999.90;764.50;;;13.80;99.90;;;;;;4946496;29;20503;-77
2023/01/13 00:06:41;;;;;;;1999.90;876.90;;;13.40;99.90;;;;;;4954359;29;20087;-77
2023/01/13 00:09:07;;;;;;;1999.90;840.72;;;11.70;99.90;;;;;;4952395;29;20442;-78
2023/01/13 00:11:34;;;;;;;1999.90;678.38;;;13.70;99.90;;;;;;4952890;28;20122;-76
2023/01/13 00:13:59;;;;;;;1999.90;683.80;;;13.70;99.90;;;;;;4952263;28;20047;-76
2023/01/13 00:16:25;;;;;;;1999.90;999.90;;;13.40;99.90;;;;;;4950942;28;20145;-76
2023/01/13 00:18:51;;;;;;;1999.90;999.90;;;13.60;99.90;;;;;;4952192;28;20047;-76
2023/01/13 00:21:22;;;;;;;1999.90;750.97;;;14.50;99.90;;;;;;4951382;28;20122;-77
2023/01/13 00:23:50;;;;;;;1999.90;447.70;;;13.50;99.90;;;;;;4949455;29;20055;-76
2023/01/13 00:26:21;;;;;;;1999.90;720.30;;;13.50;99.90;;;;;;4934582;29;20377;-75
2023/01/13 00:28:48;;;;;;;1999.90;883.80;;;13.20;99.90;;;;;;4949340;29;20048;-76
2023/01/13 00:31:18;;;;;;;1999.90;530.83;;;13.10;99.90;;;;;;4952309;29;20051;-75
2023/01/13 00:33:45;;;;;;;1999.90;788.33;;;13.60;99.90;;;;;;4952793;28;20488;-76
2023/01/13 00:36:13;;;;;;;1999.90;792.47;;;12.70;99.90;;;;;;4951381;29;20499;-75
2023/01/13 00:38:41;;;;;;;1999.90;658.35;;;13.40;99.90;;;;;;4934240;29;20094;-75
2023/01/13 00:41:09;;;;;;;1999.90;814.00;;;13.30;99.90;;;;;;4942932;29;20079;-75
2023/01/13 00:43:36;;;;;;;1999.90;756.75;;;13.20;99.90;;;;;;4955131;28;20047;-75
2023/01/13 00:46:03;;;;;;;1999.90;510.40;;;10.20;99.90;;;;;;4955611;28;20379;-75
2023/01/13 00:48:29;;;;;;;1999.90;999.90;;;13.30;99.90;;;;;;4956705;28;20039;-75
2023/01/13 00:50:57;;;;;;;1999.90;999.90;;;13.20;99.90;;;;;;4947955;28;20043;-76
2023/01/13 00:53:23;;;;;;;1999.90;883.00;;;13.00;99.90;;;;;;4955313;29;20043;-74
2023/01/13 00:55:57;;;;;;;1999.90;788.60;;;13.20;99.90;;;;;;4957148;28;20492;-74
2023/01/13 00:58:22;;;;;;;1999.90;778.20;;;13.20;99.90;;;;;;4940235;29;20051;-75
2023/01/13 01:00:48;;;;;;;1999.90;858.13;;;12.90;99.90;;;;;;4951009;29;20050;-75
2023/01/13 01:03:14;;;;;;;1999.90;778.58;;;13.10;99.90;;;;;;4951957;28;20054;-75
2023/01/13 01:05:40;;;;;;;1999.90;745.58;;;13.00;99.90;;;;;;4957022;29;20105;-75
2023/01/13 01:08:05;;;;;;;1999.90;939.85;;;12.90;99.90;;;;;;4944499;29;20047;-74
2023/01/13 01:10:31;;;;;;;1999.90;634.97;;;13.10;99.90;;;;;;4941742;29;20481;-76
2023/01/13 01:12:57;;;;;;;1999.90;896.38;;;;;;;;;;4954986;28;20050;-75
2023/01/13 01:15:23;;;;;;;1999.90;879.40;;;13.20;99.90;;;;;;4952913;28;20043;-74
2023/01/13 01:17:48;;;;;;;1999.90;947.88;;;13.00;99.90;;;;;;4954742;28;20042;-75
2023/01/13 01:20:14;;;;;;;1999.90;999.90;;;12.90;99.90;;;;;;4955323;28;20050;-78
2023/01/13 01:22:40;;;;;;;1999.90;900.75;;;13.00;99.90;;;;;;4953386;28;20472;-74
2023/01/13 01:25:06;;;;;;;1999.90;666.05;;;13.00;99.90;;;;;;4955205;28;20122;-75
2023/01/13 01:27:32;;;;;;;1999.90;847.40;;;;;;;;;;4954395;28;20890;-75
2023/01/13 01:29:58;;;;;;;1999.90;964.55;;;13.70;99.90;;;;;;4955222;29;20047;-74
2023/01/13 01:32:24;;;;;;;1999.90;999.90;;;13.10;99.90;;;;;;4951947;28;20050;-74
2023/01/13 01:34:50;;;;;;;1999.90;879.33;;;13.00;99.90;;;;;;4953159;29;20376;-74
2023/01/13 01:37:16;;;;;;;1999.90;987.70;;;12.10;99.90;;;;;;4942561;28;20046;-77
2023/01/13 01:39:42;;;;;;;1999.90;999.90;;;12.90;99.90;;;;;;4956358;28;20043;-74
2023/01/13 01:45:32;;;;;;;1999.90;810.83;;;13.00;99.90;;;;;;4949683;29;20047;-74
2023/01/13 01:48:03;;;;;;;1999.90;645.72;;;12.90;99.90;;;;;;4920414;28;20496;-74
2023/01/13 01:50:30;;;;;;;1999.90;999.90;;;12.90;99.90;;;;;;4936513;28;20043;-74
2023/01/13 01:53:06;;;;;;;1999.90;934.17;;;12.90;99.90;;;;;;4939978;28;20488;-74
2023/01/13 01:55:35;;;;;;;1999.90;543.00;;;14.90;99.90;;;;;;4951125;28;20031;-78
2023/01/13 01:58:22;;;;;;;1999.90;917.40;;;12.90;99.90;;;;;;4944077;28;20038;-74
2023/01/13 02:00:48;;;;;;;1999.90;774.75;;;12.90;99.90;;;;;;4953880;28;20062;-74
2023/01/13 02:03:16;;;;;;;1999.90;958.05;;;12.90;99.90;;;;;;4944826;28;20484;-75
2023/01/13 02:05:41;;;;;;;1999.90;944.03;;;13.00;99.90;;;;;;4940975;28;20047;-75
2023/01/13 02:08:10;;;;;;;1999.90;464.20;;;13.70;99.90;;;;;;4954385;29;20054;-76
2023/01/13 02:10:36;;;;;;;1999.90;700.05;;;12.90;99.90;;;;;;4954363;28;20035;-75
2023/01/13 02:13:06;;;;;;;1999.90;834.03;;;12.80;99.90;;;;;;4934970;28;20111;-79
2023/01/13 02:15:35;;;;;;;1999.90;690.90;;;12.90;99.90;;;;;;4942565;28;20075;-74
2023/01/13 02:18:26;;;;;;;1999.90;818.85;;;13.00;99.90;;;;;;4952331;28;20136;-75
2023/01/13 02:21:17;;;;;;;1999.90;995.70;;;12.90;99.90;;;;;;4946941;28;20088;-74
2023/01/13 02:27:21;;;;;;;1999.90;904.70;;;13.00;99.90;;;;;;4944141;28;20121;-75
2023/01/13 02:33:10;;;;;;;1999.90;999.90;;;13.10;99.90;;;;;;4945866;28;20070;-74
2023/01/13 02:35:56;;;;;;;1999.90;814.07;;;12.80;99.90;;;;;;4940348;28;20047;-74
2023/01/13 02:38:32;;;;;;;1999.90;999.90;;;13.00;99.90;;;;;;4948602;28;20083;-75
2023/01/13 02:44:22;;;;;;;1999.90;999.90;;;13.00;99.90;;;;;;4951771;28;20139;-74
2023/01/13 02:47:01;;;;;;;1999.90;800.17;;;13.00;99.90;;;;;;4953350;28;20047;-74
2023/01/13 02:49:53;;;;;;;1999.90;950.78;;;13.80;99.90;;;;;;4951836;28;20053;-75
2023/01/13 02:52:32;;;;;;;1999.90;978.05;;;13.00;99.90;;;;;;4945192;29;20055;-74
2023/01/13 02:55:13;;;;;;;1999.90;999.90;;;12.90;99.90;;;;;;4953535;28;20377;-74
2023/01/13 02:57:41;;;;;;;1999.90;696.25;;;9.80;99.90;;;;;;4959306;28;20049;-73
2023/01/13 03:00:09;;;;;;;1999.90;821.38;;;14.20;99.90;;;;;;4950911;28;20039;-77
2023/01/13 03:02:35;;;;;;;1999.90;955.88;;;12.90;99.90;;;;;;4942825;28;20547;-74
2023/01/13 03:05:00;;;;;;;1999.90;972.00;;;13.00;99.90;;;;;;4953386;28;20118;-74
2023/01/13 03:07:29;;;;;;;1999.90;866.75;;;13.00;99.90;;;;;;4940674;28;20043;-74
2023/01/13 03:10:18;;;;;;;1999.90;544.47;;;13.70;99.90;;;;;;4949557;28;20050;-74
2023/01/13 03:12:53;;;;;;;1999.90;888.42;;;12.90;99.90;;;;;;4953951;28;20428;-74
2023/01/13 03:15:39;;;;;;;1999.90;778.13;;;13.00;99.90;;;;;;4947820;28;20032;-76
2023/01/13 03:18:34;;;;;;;1999.90;939.08;;;12.90;99.90;;;;;;4939467;28;20137;-74
2023/01/13 03:21:34;;;;;;;1999.90;857.15;;;12.90;99.90;;;;;;4947812;28;20039;-74
2023/01/13 03:24:08;;;;;;;1999.90;999.90;;;13.00;99.90;;;;;;4949881;28;20047;-74
2023/01/13 03:26:52;;;;;;;1999.90;910.40;;;12.80;99.90;;;;;;4962449;28;20043;-74
2023/01/13 03:29:33;;;;;;;1999.90;914.72;;;13.10;99.90;;;;;;4955059;28;20050;-74
2023/01/13 03:32:09;;;;;;;1999.90;811.47;;;12.80;99.90;;;;;;4940478;29;20045;-74
2023/01/13 03:34:49;;;;;;;1999.90;871.15;;;13.60;99.90;;;;;;4951881;29;20039;-75
2023/01/13 03:37:20;;;;;;;1999.90;923.20;;;12.90;99.90;;;;;;4952354;29;20087;-77
2023/01/13 03:39:59;;;;;;;1999.90;999.90;;;12.80;99.90;;;;;;4953801;29;20065;-74
2023/01/13 03:42:29;;;;;;;1999.90;948.33;;;12.80;99.90;;;;;;4951738;28;20090;-74
2023/01/13 03:45:13;;;;;;;1999.90;697.05;;;12.80;99.90;;;;;;4952395;28;20074;-75
2023/01/13 03:47:56;;;;;;;1999.90;939.05;;;12.80;99.90;;;;;;4953362;28;20357;-74
2023/01/13 03:50:35;;;;;;;1999.90;621.85;;;11.40;99.90;;;;;;4952098;29;20039;-74
2023/01/13 03:53:11;;;;;;;1999.90;857.72;;;12.70;99.90;;;;;;4953084;29;20047;-74
2023/01/13 03:55:42;;;;;;;1999.90;582.20;;;13.70;99.90;;;;;;4934630;29;20673;-75
2023/01/13 03:58:19;;;;;;;1999.90;508.63;;;12.90;99.90;;;;;;4935753;29;20082;-74
2023/01/13 04:00:58;;;;;;;1999.90;967.85;;;16.00;99.90;;;;;;4935054;29;20674;-74
2023/01/13 04:03:49;;;;;;;1999.90;979.58;;;12.90;99.90;;;;;;4937505;28;20047;-74
2023/01/13 04:06:33;;;;;;;1999.90;870.05;;;12.80;99.90;;;;;;4934918;29;20047;-74
2023/01/13 04:09:13;;;;;;;1999.90;815.38;;;12.90;99.90;;;;;;4934510;29;20047;-74
2023/01/13 04:11:43;;;;;;;1999.90;999.90;;;14.10;99.90;;;;;;4951838;29;20253;-74
2023/01/13 04:14:11;;;;;;;1999.90;730.65;;;13.00;99.90;;;;;;4952560;29;20044;-74
2023/01/13 04:16:37;;;;;;;1999.90;720.90;;;12.90;99.90;;;;;;4952499;28;20388;-76
2023/01/13 04:19:03;;;;;;;1999.90;810.03;;;12.90;99.90;;;;;;4957634;28;20095;-74
2023/01/13 04:21:30;;;;;;;1999.90;919.47;;;12.90;99.90;;;;;;4957629;29;20443;-74
2023/01/13 04:23:55;;;;;;;1999.90;897.30;;;11.80;99.90;;;;;;4956730;28;20484;-75
2023/01/13 04:26:23;;;;;;;1999.90;708.83;;;12.40;99.90;;;;;;4955238;28;20035;-81
2023/01/13 04:28:50;;;;;;;1999.90;977.28;;;12.80;99.90;;;;;;4957476;28;20546;-74
2023/01/13 04:31:16;;;;;;;1999.90;842.95;;;13.00;99.90;;;;;;4956326;29;20108;-74
2023/01/13 04:33:42;;;;;;;1999.90;742.47;;;12.00;99.90;;;;;;4956427;29;20076;-74
2023/01/13 04:36:08;;;;;;;1999.90;787.58;;;12.80;99.90;;;;;;4956285;28;20126;-75
2023/01/13 04:38:34;;;;;;;1999.90;999.90;;;12.90;99.90;;;;;;4956547;28;20067;-76
2023/01/13 04:40:59;;;;;;;1999.90;745.17;;;12.90;99.90;;;;;;4956670;28;20066;-74
2023/01/13 04:43:25;;;;;;;1999.90;999.90;;;12.80;99.90;;;;;;4956813;29;20673;-75
2023/01/13 04:45:51;;;;;;;1999.90;720.72;;;12.90;99.90;;;;;;4955285;28;20047;-74
2023/01/13 04:48:16;;;;;;;1999.90;875.08;;;12.90;99.90;;;;;;4953089;28;20098;-75
2023/01/13 04:50:42;;;;;;;1999.90;773.58;;;12.90;99.90;;;;;;4945149;28;20279;-74
2023/01/13 04:53:08;;;;;;;1999.90;996.53;;;12.90;99.90;;;;;;4955754;28;20387;-75
2023/01/13 04:55:34;;;;;;;1999.90;805.35;;;12.90;99.90;;;;;;4954948;28;20046;-74
2023/01/13 04:58:07;;;;;;;1999.90;985.75;;;12.90;99.90;;;;;;4945325;28;20447;-74
2023/01/13 05:00:34;;;;;;;1999.90;342.63;;;13.20;99.90;;;;;;4953899;29;20043;-79
2023/01/13 05:03:00;;;;;;;1999.90;547.10;;;;;;;;;;4955918;28;20039;-74
2023/01/13 05:05:27;;;;;;;1999.90;939.50;;;13.00;99.90;;;;;;4952471;29;20054;-80
2023/01/13 05:07:54;;;;;;;1999.90;979.33;;;13.00;99.90;;;;;;4953978;29;20079;-75
2023/01/13 05:10:20;;;;;;;1999.90;995.35;;;13.10;99.90;;;;;;4956579;28;20065;-74
2023/01/13 05:18:15;;;;;;;1999.90;837.95;;;13.10;99.90;;;;;;4943368;28;20548;-75
2023/01/13 05:20:41;;;;;;;1999.90;999.90;;;13.10;99.90;;;;;;4953917;28;20396;-74
2023/01/13 05:25:51;;;;;;;1999.90;806.80;;;13.00;99.90;;;;;;4955610;29;20059;-75
2023/01/13 05:28:17;;;;;;;1999.90;913.33;;;13.10;99.90;;;;;;4953337;28;20047;-75
2023/01/13 05:30:48;;;;;;;1999.90;951.28;;;13.00;99.90;;;;;;4950233;28;20543;-75
2023/01/13 05:33:15;;;;;;;1999.90;646.33;;;13.10;99.90;;;;;;4956539;29;20047;-76
2023/01/13 05:35:43;;;;;;;1999.90;782.42;;;13.00;99.90;;;;;;4954371;29;20043;-77
2023/01/13 05:38:09;;;;;;;1999.90;766.53;;;13.00;99.90;;;;;;4953268;28;20042;-76
2023/01/13 05:43:23;;;;;;;1999.90;801.75;;;12.90;99.90;;;;;;4952269;29;20054;-78
2023/01/13 05:45:54;;;;;;;1999.90;901.35;;;12.70;99.90;;;;;;4958962;28;20224;-75
2023/01/13 05:48:22;;;;;;;1999.90;794.83;;;12.80;99.90;;;;;;4968942;28;20361;-75
2023/01/13 05:50:49;;;;;;;1999.90;774.28;;;12.60;99.90;;;;;;4950003;28;20098;-77
2023/01/13 05:53:16;;;;;;;1999.90;763.38;;;12.30;99.90;;;;;;4954303;29;21643;-75
2023/01/13 05:55:43;;;;;;;1999.90;878.63;;;12.60;99.90;;;;;;4955200;28;20527;-75
2023/01/13 05:58:10;;;;;;;1999.90;924.58;;;12.70;99.90;;;;;;4954511;28;20047;-75
2023/01/13 06:00:36;;;;;;;1999.90;655.50;;;;;;;;;;4951419;28;20480;-75
2023/01/13 06:03:03;;;;;;;1999.90;854.55;;;12.70;99.90;;;;;;4954901;28;20079;-76
2023/01/13 06:05:30;;;;;;;1999.90;918.35;;;12.70;99.90;;;;;;4953441;28;20031;-80
2023/01/13 06:08:00;;;;;;;1999.90;999.90;;;12.80;99.90;;;;;;4953336;29;20050;-74
2023/01/13 06:10:26;;;;;;;1999.90;775.55;;;12.80;99.90;;;;;;4954910;28;20051;-74
2023/01/13 06:12:51;;;;;;;1999.90;826.10;;;12.10;99.90;;;;;;4950473;28;20109;-73
2023/01/13 06:15:18;;;;;;;1999.90;983.72;;;12.80;99.90;;;;;;4947446;28;20035;-73
2023/01/13 06:17:43;;;;;;;1999.90;858.10;;;12.70;99.90;;;;;;4945343;28;20147;-72
2023/01/13 06:20:10;;;;;;;1999.90;939.53;;;12.80;99.90;;;;;;4954823;28;20126;-73
2023/01/13 06:22:40;;;;;;;1999.90;817.33;;;13.70;99.90;;;;;;4955632;28;20051;-72
2023/01/13 06:25:16;;;;;;;1999.90;828.63;;;12.80;99.90;;;;;;4968504;28;20047;-74
2023/01/13 06:27:42;;;;;;;1999.90;756.95;;;12.80;99.90;;;;;;4944928;28;20508;-75
2023/01/13 06:30:09;;;;;;;1999.90;788.28;;;12.10;99.90;;;;;;4952864;28;20504;-79
2023/01/13 06:32:42;;;;;;;1999.90;730.45;;;11.30;99.90;;;;;;4955025;28;20061;-85
2023/01/13 06:35:12;;;;;;;1999.90;999.90;;;12.80;99.90;;;;;;4951776;28;20045;-75
2023/01/13 06:37:40;;;;;;;1999.90;999.90;;;12.90;99.90;;;;;;4935773;29;20046;-76
2023/01/13 06:40:07;;;;;;;1999.90;917.95;;;12.80;99.90;;;;;;4943483;28;20131;-76
2023/01/13 06:45:23;;;;;;;1999.90;999.90;;;14.80;99.90;;;;;;4949444;28;20423;-76
2023/01/13 06:47:48;;;;;;;1999.90;818.22;;;13.60;99.90;;;;;;4952430;28;20078;-76
2023/01/13 06:50:17;;;;;;;1999.90;999.90;;;13.20;99.90;;;;;;4955105;28;20047;-76
2023/01/13 06:52:42;;;;;;;1999.90;831.70;;;12.30;99.90;;;;;;4954441;28;20114;-78
2023/01/13 06:55:08;;;;;;;1999.90;879.58;;;12.30;99.90;;;;;;4954856;28;20047;-78
2023/01/13 06:57:34;;;;;;;1999.90;970.20;;;12.50;99.90;;;;;;4953720;29;20051;-78
2023/01/13 07:00:00;;;;;;;1999.90;809.38;;;;;;;;;;4955103;28;20106;-78
2023/01/13 07:02:27;;;;;;;1999.90;999.90;;;13.00;99.90;;;;;;4954771;28;20091;-78
2023/01/13 07:04:52;;;;;;;1999.90;960.15;;;13.30;99.90;;;;;;4937723;29;20111;-79
2023/01/13 07:07:18;;;;;;;1999.90;795.17;;;13.30;99.90;;;;;;4938803;29;20039;-79
2023/01/13 07:09:44;;;;;;;1999.90;998.20;;;13.10;99.90;;;;;;4954228;28;20047;-79
2023/01/13 07:12:10;;;;;;;1999.90;790.50;;;12.30;99.90;;;;;;4955642;28;20047;-78
2023/01/13 07:17:23;;;;;;;1999.90;999.90;;;12.90;99.90;;;;;;4952605;29;20057;-76
2023/01/13 07:19:50;;;;;;;1999.90;999.90;;;12.10;99.90;;;;;;4953229;29;20511;-79
2023/01/13 07:22:17;;;;;;;1999.90;999.90;;;;;;;;;;4954698;28;20051;-82
2023/01/13 07:24:42;;;;;;;1999.90;999.90;;;13.30;99.90;;;;;;4954554;28;20043;-80
2023/01/13 07:27:08;;;;;;;1999.90;999.90;;;12.00;99.90;;;;;;4954056;28;20130;-80
2023/01/13 07:29:34;;;;;;;1999.90;999.90;;;13.40;99.90;;;;;;4954369;28;20069;-80
2023/01/13 07:32:00;;;;;;;1999.90;866.35;;;11.70;99.90;;;;;;4954513;28;20047;-82
2023/01/13 07:34:25;;;;;;;1999.90;921.70;;;11.90;99.90;;;;;;4954947;29;20117;-81
2023/01/13 07:36:51;;;;;;;1999.90;999.90;;;12.70;99.90;;;;;;4957376;28;20046;-81
2023/01/13 07:39:17;;;;;;;1999.90;994.38;;;13.10;99.90;;;;;;4962075;28;20085;-81
2023/01/13 07:44:27;;;;;;;1999.90;934.20;;;12.10;99.90;;;;;;4945144;29;20598;-80
2023/01/13 07:46:52;;;;;;;1999.90;999.90;;;12.90;99.90;;;;;;4948847;28;20059;-81
2023/01/13 07:49:18;;;;;;;1999.90;999.90;;;13.00;99.90;;;;;;4954592;28;20050;-80
2023/01/13 07:51:44;;;;;;;1999.90;999.90;;;13.20;99.90;;;;;;4954212;28;20463;-92
2023/01/13 07:54:09;;;;;;;1999.90;999.90;;;13.10;99.90;;;;;;4952335;29;20047;-80
2023/01/13 07:56:35;;;;;;;1999.90;999.90;;;10.40;99.90;;;;;;4954578;29;20133;-79
2023/01/13 07:59:01;;;;;;;1999.90;997.38;;;12.50;99.90;;;;;;4954371;29;20065;-79
2023/01/13 08:01:27;;;;;;;1999.90;999.90;;;12.20;99.90;;;;;;4954303;29;20062;-79
2023/01/13 08:03:55;;;;;;;1999.90;984.65;;;13.80;99.90;;;;;;4953904;28;20055;-80
2023/01/13 08:06:21;;;;;;;1999.90;999.90;;;11.80;99.90;;;;;;4954492;28;20400;-78
2023/01/13 08:08:46;;;;;;;1999.90;719.65;;;13.60;99.90;;;;;;4954176;28;20051;-84
2023/01/13 08:11:12;;;;;;;1999.90;967.03;;;12.90;99.90;;;;;;4954709;28;20047;-81
2023/01/13 08:13:38;;;;;;;1999.90;999.90;;;11.80;99.90;;;;;;4952792;29;20079;-80
2023/01/13 08:16:09;;;;;;;1999.90;876.42;;;13.10;99.90;;;;;;4954090;28;20391;-81
2023/01/13 08:18:36;;;;;;;1999.90;999.90;;;11.80;99.90;;;;;;4954450;28;20062;-80
2023/01/13 08:21:07;;;;;;;1999.90;999.90;;;12.90;99.90;;;;;;4953820;28;20114;-79
2023/01/13 08:23:33;;;;;;;1999.90;999.90;;;11.90;99.90;;;;;;4953237;28;20051;-80
2023/01/13 08:26:08;;;;;;;1999.90;999.90;;;11.90;99.90;;;;;;4953250;29;20047;-80
2023/01/13 08:28:34;;;;;;;1999.90;940.42;;;12.20;99.90;;;;;;4954698;28;20047;-80
2023/01/13 08:31:04;;;;;;;1999.90;999.90;;;13.60;99.90;;;;;;4952668;28;20098;-79
2023/01/13 08:33:31;;;;;;;1999.90;958.20;;;15.40;99.90;;;;;;4954414;28;20053;-79
2023/01/13 08:35:57;;;;;;;1999.90;955.33;;;13.20;99.90;;;;;;4953602;28;20039;-79
2023/01/13 08:38:23;;;;;;;1999.90;999.90;;;13.20;99.90;;;;;;4954048;28;20102;-80
2023/01/13 08:40:50;;;;;;;1999.90;999.90;;;13.40;99.90;;;;;;4952994;29;20063;-86
2023/01/13 08:43:16;;;;;;;1999.90;999.90;;;;;;;;;;4954078;28;20078;-81
2023/01/13 08:45:42;;;;;;;1999.90;984.13;;;;;;;;;;4951524;28;20043;-81
2023/01/13 08:48:07;;;;;;;1999.90;999.90;;;12.70;99.90;;;;;;4951154;28;20381;-86
2023/01/13 08:50:33;;;;;;;1999.90;999.90;;;15.60;99.90;;;;;;4954198;28;20051;-80
2023/01/13 08:52:59;;;;;;;1999.90;999.90;;;12.50;99.90;;;;;;4953007;29;20059;-80
2023/01/13 08:55:25;;;;;;;1999.90;999.90;;;13.40;99.90;;;;;;4952513;28;20566;-80
2023/01/13 08:57:51;;;;;;;1999.90;999.90;;;11.80;99.90;;;;;;4954408;28;20103;-80
2023/01/13 09:00:17;;;;;;;1999.90;764.35;;;12.70;99.90;;;;;;4954096;28;20051;-80
2023/01/13 09:02:43;;;;;;;1999.90;999.90;;;15.10;99.90;;;;;;4953940;28;20055;-79
2023/01/13 09:05:09;;;;;;;1999.90;999.90;;;13.50;99.90;;;;;;4954588;28;20058;-80
2023/01/13 09:07:36;;;;;;;1999.90;905.90;;;13.10;99.90;;;;;;4956044;28;20374;-82
2023/01/13 09:10:05;;;;;;;1999.90;828.10;;;13.50;99.90;;;;;;4957493;28;20102;-80
2023/01/13 09:15:17;;;;;;;1999.90;999.90;;;13.00;99.90;;;;;;4955909;28;20055;-80
2023/01/13 09:17:43;;;;;;;1999.90;999.90;;;;;;;;;;4957106;28;20059;-80
2023/01/13 09:20:10;;;;;;;1999.90;999.90;;;12.80;99.90;;;;;;4939831;29;20051;-81
2023/01/13 09:22:36;;;;;;;1999.90;999.90;;;13.50;99.90;;;;;;4956396;28;20055;-81
2023/01/13 09:25:02;;;;;;;1999.90;922.55;;;9.00;99.90;;;;;;4956433;29;20437;-82
2023/01/13 09:27:28;;;;;;;1999.90;999.90;;;13.00;99.90;;;;;;4939227;29;20055;-81
2023/01/13 09:29:53;;;;;;;1999.90;999.90;;;12.10;99.90;;;;;;4956582;28;20077;-82
2023/01/13 09:32:19;;;;;;;1999.90;999.90;;;12.40;99.90;;;;;;4956102;28;20167;-82
2023/01/13 09:35:00;;;;;;;1999.90;999.90;;;12.30;99.90;;;;;;4957154;28;20110;-83
2023/01/13 09:37:32;;;;;;;1999.90;999.90;;;12.40;99.90;;;;;;4954294;29;20141;-81
2023/01/13 09:39:59;;;;;;;1999.90;870.08;;;12.30;99.90;;;;;;4956721;28;20126;-81
2023/01/13 09:45:57;;;;;;;1999.90;999.90;;;13.30;99.90;;;;;;4925174;28;20079;-82
2023/01/13 09:48:28;;;;;;;1999.90;999.90;;;14.80;99.90;;;;;;4955773;28;20090;-82
2023/01/13 09:51:17;;;;;;;1999.90;789.15;;;12.50;99.90;;;;;;4955637;29;20873;-81
2023/01/13 09:53:51;;;;;;;1999.90;999.90;;;13.40;99.90;;;;;;4956308;29;20043;-81
2023/01/13 09:56:16;;;;;;;1999.90;999.90;;;13.60;99.90;;;;;;4955360;29;20373;-81
2023/01/13 09:58:44;;;;;;;1999.90;999.90;;;13.10;99.90;;;;;;4954174;28;20050;-82
2023/01/13 10:01:36;;;;;;;;;;;15.70;99.90;;;;;;4955729;28;20385;-82
2023/01/13 10:04:10;;;;;;;1999.90;953.50;;;12.30;99.90;;;;;;4925199;28;20299;-83
2023/01/13 10:06:40;;;;;;;1999.90;656.88;;;11.20;99.90;;;;;;4955440;28;20508;-82
2023/01/13 10:09:17;;;;;;;1999.90;917.33;;;11.70;99.90;;;;;;4954084;29;20054;-82
2023/01/13 10:14:44;;;;;;;1999.90;800.13;;;15.10;99.90;;;;;;4955658;29;20051;-82
2023/01/13 10:17:19;;;;;;;1999.90;908.58;;;12.80;99.90;;;;;;4952623;29;20039;-83
2023/01/13 10:19:59;;;;;;;1999.90;913.50;;;12.30;99.90;;;;;;4954679;28;20138;-81
2023/01/13 10:22:38;;;;;;;1999.90;998.75;;;14.00;99.90;;;;;;4937856;29;20105;-83
2023/01/13 10:25:21;;;;;;;1999.90;976.03;;;12.70;99.90;;;;;;4955520;28;20128;-82
2023/01/13 10:27:50;;;;;;;1999.90;773.63;;;12.40;99.90;;;;;;4954627;28;20448;-82
2023/01/13 10:30:32;;;;;;;1999.90;988.83;;;15.80;99.90;;;;;;4954483;28;20110;-81
2023/01/13 10:33:05;;;;;;;1999.90;698.50;;;12.10;99.90;;;;;;4953854;29;20082;-81
2023/01/13 10:35:57;;;;;;;1999.90;985.97;;;12.80;99.90;;;;;;4955624;28;20400;-82
2023/01/13 10:38:26;;;;;;;1999.90;978.67;;;13.30;99.90;;;;;;4947690;28;20055;-81
2023/01/13 10:41:20;;;;;;;1999.90;802.45;;;12.20;99.90;;;;;;4955067;28;20097;-82
2023/01/13 10:43:51;;;;;;;1999.90;999.90;;;14.80;99.90;;;;;;4937799;28;20060;-81
2023/01/13 10:46:19;;;;;;;1999.90;868.65;;;12.90;99.90;;;;;;4935946;29;20163;-80
2023/01/13 10:49:02;;;;;;;1999.90;991.17;;;13.40;99.90;;;;;;4943972;28;20516;-80
2023/01/13 10:51:36;;;;;;;1999.90;997.17;;;12.40;99.90;;;;;;4954256;29;20082;-82
2023/01/13 10:54:11;;;;;;;1999.90;999.90;;;12.70;99.90;;;;;;4953905;28;20047;-80
2023/01/13 10:56:43;;;;;;;1999.90;999.90;;;12.40;99.90;;;;;;4954982;28;20051;-80
2023/01/13 10:59:27;;;;;;;1999.90;588.97;;;15.00;99.90;;;;;;4953550;29;20061;-80
2023/01/13 11:02:12;;;;;;;1999.90;999.90;;;13.10;99.90;;;;;;4953730;29;20106;-80
2023/01/13 11:04:54;;;;;;;1999.90;999.90;;;13.20;99.90;;;;;;4955075;29;20086;-84
2023/01/13 11:07:44;;;;;;;1999.90;961.63;;;13.50;99.90;;;;;;4954111;28;20047;-81
2023/01/13 11:10:31;;;;;;;1999.90;867.13;;;15.00;99.90;;;;;;4953439;28;20058;-79
2023/01/13 11:13:18;;;;;;;1999.90;999.90;;;13.50;99.90;;;;;;4953462;28;20094;-80
2023/01/13 11:16:11;;;;;;;1999.90;999.90;;;14.10;99.90;;;;;;4953288;28;20508;-80
2023/01/13 11:19:10;;;;;;;1999.90;774.95;;;13.50;99.90;;;;;;4951861;29;20377;-80
2023/01/13 11:22:08;;;;;;;1999.90;945.00;;;12.70;99.90;;;;;;4954981;28;20062;-81
2023/01/13 11:25:00;;;;;;;1999.90;958.72;;;12.70;99.90;;;;;;4953333;28;20070;-80
2023/01/13 11:28:00;;;;;;;1999.90;999.90;;;12.70;99.90;;;;;;4952132;28;20487;-81
2023/01/13 11:30:48;;;;;;;1999.90;926.65;;;14.20;99.90;;;;;;4952576;28;20530;-80
2023/01/13 11:33:14;;;;;;;1999.90;990.53;;;10.00;99.90;;;;;;4952303;29;20051;-80
2023/01/13 11:36:12;;;;;;;1999.90;999.90;;;12.90;99.90;;;;;;4954528;29;20054;-79
2023/01/13 11:38:51;;;;;;;1999.90;999.90;;;14.00;99.90;;;;;;4948857;28;20055;-80
2023/01/13 11:41:29;;;;;;;1999.90;817.08;;;12.20;99.90;;;;;;4954699;29;20050;-80
2023/01/13 11:44:24;;;;;;;1999.90;999.90;;;12.50;99.90;;;;;;4952560;29;20316;-80
2023/01/13 11:46:53;;;;;;;1999.90;811.05;;;14.20;99.90;;;;;;4950550;29;20073;-80
2023/01/13 11:49:27;;;;;;;1999.90;999.90;;;12.20;99.90;;;;;;4952950;28;20496;-79
2023/01/13 11:52:20;;;;;;;1999.90;999.90;;;13.50;99.90;;;;;;4954575;28;20400;-80
2023/01/13 11:55:16;;;;;;;1999.90;718.78;;;13.80;99.90;;;;;;4952460;29;20059;-79
2023/01/13 11:58:11;;;;;;;1999.90;999.53;;;14.20;99.90;;;;;;4954274;28;20047;-79
2023/01/13 12:01:14;;;;;;;1999.90;992.95;;;14.30;99.90;;;;;;4953749;28;20069;-80
2023/01/13 12:03:49;;;;;;;1999.90;999.90;;;13.40;99.90;;;;;;4954491;28;20058;-80
2023/01/13 12:06:26;;;;;;;1999.90;999.90;;;10.70;99.90;;;;;;4953047;28;20044;-80
2023/01/13 12:08:57;;;;;;;1999.90;995.03;;;14.20;99.90;;;;;;4953351;29;20043;-79
2023/01/13 12:14:42;;;;;;;1999.90;999.90;;;13.60;99.90;;;;;;4952818;28;20055;-80
2023/01/13 12:17:34;;;;;;;1999.90;997.50;;;14.50;99.90;;;;;;4937092;29;20182;-79
2023/01/13 12:20:22;;;;;;;1999.90;998.13;;;12.30;99.90;;;;;;4948442;28;20081;-79
2023/01/13 12:22:51;;;;;;;1999.90;970.42;;;14.40;99.90;;;;;;4951586;29;20048;-80
2023/01/13 12:25:16;;;;;;;1999.90;980.45;;;12.80;99.90;;;;;;4952317;29;20043;-79
2023/01/13 12:27:48;;;;;;;1999.90;909.75;;;12.60;99.90;;;;;;4954015;29;20050;-80
2023/01/13 12:30:43;;;;;;;1999.90;849.10;;;14.30;99.90;;;;;;4953191;29;20074;-86
2023/01/13 12:33:18;;;;;;;1999.90;643.28;;;14.20;99.90;;;;;;4951649;28;20118;-79
2023/01/13 12:36:12;;;;;;;1999.90;999.90;;;13.00;99.90;;;;;;4954191;28;20050;-78
2023/01/13 12:38:51;;;;;;;1999.90;999.90;;;12.90;99.90;;;;;;4952068;28;20055;-79
2023/01/13 12:44:15;;;;;;;1999.90;915.05;;;14.10;99.90;;;;;;4957119;28;20055;-79
2023/01/13 12:44:28;;;;;;;1999.90;931.78;;;11.90;99.90;;;;;;4947537;28;20049;-80
2023/01/13 12:46:58;;;;;;;1999.90;999.90;;;14.20;99.90;;;;;;4936813;29;20056;-79
2023/01/13 12:49:28;;;;;;;1999.90;974.83;;;14.10;99.90;;;;;;4938164;29;20050;-79
2023/01/13 12:51:53;;;;;;;1999.90;923.50;;;12.10;99.90;;;;;;4955732;28;20577;-82
2023/01/13 12:54:41;;;;;;;1999.90;999.90;;;12.20;99.90;;;;;;4953613;28;20081;-79
2023/01/13 12:57:18;;;;;;;1999.90;999.90;;;14.30;99.90;;;;;;4957489;29;20090;-80
2023/01/13 13:00:03;;;;;;;1999.90;958.72;;;12.70;99.90;;;;;;4957282;29;20051;-80
2023/01/13 13:02:40;;;;;;;1999.90;999.90;;;15.80;99.90;;;;;;4956512;29;20054;-80
2023/01/13 13:05:24;;;;;;;1999.90;999.90;;;12.50;99.90;;;;;;4956945;29;20059;-81
2023/01/13 13:08:11;;;;;;;1999.90;999.90;;;12.70;99.90;;;;;;4956762;29;20066;-79
2023/01/13 13:10:44;;;;;;;1999.90;977.03;;;14.30;99.90;;;;;;4956040;29;20051;-79
2023/01/13 13:13:40;;;;;;;1999.90;999.90;;;14.90;99.90;;;;;;4955983;29;20082;-79